createdAt,value
2018-11-13T00:00:23.023Z,11.80
2018-11-13T00:02:52.552Z,11.90
2018-11-13T00:05:21.991Z,12.00
2018-11-13T00:07:50.883Z,12.10
2018-11-13T00:10:19.762Z,12.20
2018-11-13T00:12:48.621Z,12.50
2018-11-13T00:15:17.606Z,12.70
2018-11-13T00:17:46.701Z,12.80
2018-11-13T00:20:16.678Z,12.90
2018-11-13T00:22:45.896Z,13.10
2018-11-13T00:25:15.906Z,13.10
2018-11-13T00:27:45.162Z,13.10
2018-11-13T00:30:17.972Z,13.10
2018-11-13T00:32:46.921Z,13.00
2018-11-13T00:35:16.517Z,12.90
2018-11-13T00:37:46.093Z,12.70
2018-11-13T00:40:15.403Z,12.70
2018-11-13T00:42:45.009Z,12.60
2018-11-13T00:45:13.918Z,12.60
2018-11-13T00:47:42.881Z,12.50
2018-11-13T00:50:15.657Z,12.50
2018-11-13T00:52:45.114Z,12.50
2018-11-13T00:55:14.180Z,12.50
2018-11-13T00:57:43.004Z,12.50
2018-11-13T01:00:13.974Z,12.50
2018-11-13T01:02:43.123Z,12.50
2018-11-13T01:05:14.082Z,12.50
2018-11-13T01:07:43.913Z,12.60
2018-11-13T01:10:13.584Z,12.70
2018-11-13T01:12:43.422Z,12.80
2018-11-13T01:15:13.856Z,12.80
2018-11-13T01:17:43.577Z,12.90
2018-11-13T01:20:12.783Z,13.00
2018-11-13T01:22:41.665Z,13.10
2018-11-13T01:25:11.739Z,13.20
2018-11-13T01:27:40.845Z,13.30
2018-11-13T01:30:11.151Z,13.40
2018-11-13T01:32:40.928Z,13.30
2018-11-13T01:35:11.150Z,13.30
2018-11-13T01:37:39.980Z,13.20
2018-11-13T01:40:11.257Z,13.20
2018-11-13T01:42:40.785Z,13.20
2018-11-13T01:45:11.193Z,13.20
2018-11-13T01:47:40.087Z,13.20
2018-11-13T01:50:09.596Z,13.10
2018-11-13T01:52:38.439Z,13.10
2018-11-13T01:55:08.973Z,13.10
2018-11-13T01:57:38.226Z,13.10
2018-11-13T02:00:17.733Z,13.10
2018-11-13T02:02:48.939Z,13.10
2018-11-13T02:05:19.044Z,13.10
2018-11-13T02:07:48.256Z,13.20
2018-11-13T02:10:17.612Z,13.00
2018-11-13T02:12:46.939Z,12.90
2018-11-13T02:15:16.109Z,12.70
2018-11-13T02:17:44.907Z,12.60
2018-11-13T02:20:16.439Z,12.60
2018-11-13T02:22:45.370Z,12.50
2018-11-13T02:25:15.355Z,12.40
2018-11-13T02:30:37.049Z,12.40
2018-11-13T02:33:06.178Z,12.30
2018-11-13T02:35:35.056Z,12.20
2018-11-13T02:38:03.914Z,12.20
2018-11-13T02:40:32.847Z,12.00
2018-11-13T02:43:01.714Z,12.00
2018-11-13T02:45:30.575Z,11.90
2018-11-13T02:47:59.407Z,11.90
2018-11-13T02:50:28.280Z,11.90
2018-11-13T02:52:57.129Z,11.80
2018-11-13T02:55:25.962Z,11.80
2018-11-13T02:57:54.808Z,11.70
2018-11-13T03:00:24.283Z,11.70
2018-11-13T03:02:53.152Z,11.60
2018-11-13T03:05:22.557Z,11.60
2018-11-13T03:07:51.490Z,11.60
2018-11-13T03:10:21.075Z,11.60
2018-11-13T03:12:49.905Z,11.50
2018-11-13T03:15:19.836Z,11.50
2018-11-13T03:17:48.760Z,11.50
2018-11-13T03:20:18.891Z,11.50
2018-11-13T03:22:48.341Z,11.40
2018-11-13T03:25:18.546Z,11.40
2018-11-13T03:27:47.555Z,11.40
2018-11-13T03:30:18.611Z,11.30
2018-11-13T03:32:47.518Z,11.30
2018-11-13T03:35:16.443Z,11.30
2018-11-13T03:37:45.309Z,11.30
2018-11-13T03:40:14.563Z,11.30
2018-11-13T03:43:05.902Z,11.30
2018-11-13T03:45:34.810Z,11.30
2018-11-13T03:48:03.699Z,11.30
2018-11-13T03:50:32.528Z,11.30
2018-11-13T03:53:01.515Z,11.30
2018-11-13T03:55:30.418Z,11.30
2018-11-13T03:57:59.253Z,11.30
2018-11-13T04:00:28.120Z,11.30
2018-11-13T04:02:56.974Z,11.30
2018-11-13T04:05:25.916Z,11.30
2018-11-13T04:07:55.425Z,11.30
2018-11-13T04:10:24.907Z,11.30
2018-11-13T04:12:53.812Z,11.30
2018-11-13T04:15:23.728Z,11.30
2018-11-13T04:17:52.604Z,11.30
2018-11-13T04:20:22.293Z,11.30
2018-11-13T04:22:51.184Z,11.30
2018-11-13T04:25:20.113Z,11.20
2018-11-13T04:27:48.930Z,11.20
2018-11-13T04:30:18.593Z,11.20
2018-11-13T04:32:47.537Z,11.30
2018-11-13T04:35:17.521Z,11.20
2018-11-13T04:37:46.540Z,11.30
2018-11-13T04:40:16.635Z,11.20
2018-11-13T04:42:47.018Z,11.30
2018-11-13T04:45:17.239Z,11.30
2018-11-13T04:47:47.815Z,11.30
2018-11-13T04:50:23.294Z,11.30
2018-11-13T04:52:52.129Z,11.30
2018-11-13T04:55:21.031Z,11.30
2018-11-13T04:57:50.448Z,11.30
2018-11-13T05:00:21.870Z,11.30
2018-11-13T05:02:50.838Z,11.40
2018-11-13T05:13:59.359Z,11.40
2018-11-13T05:16:28.258Z,11.30
2018-11-13T05:18:57.172Z,11.30
2018-11-13T05:21:26.005Z,11.30
2018-11-13T05:23:54.967Z,11.30
2018-11-13T05:26:23.857Z,11.20
2018-11-13T05:28:52.707Z,11.20
2018-11-13T05:31:21.632Z,11.20
2018-11-13T05:33:50.514Z,11.20
2018-11-13T05:36:19.506Z,11.40
2018-11-13T05:38:48.446Z,11.10
2018-11-13T05:41:17.341Z,11.10
2018-11-13T05:43:52.249Z,11.10
2018-11-13T05:46:32.886Z,11.10
2018-11-13T05:49:09.182Z,11.10
2018-11-13T05:51:38.112Z,11.10
2018-11-13T05:54:07.176Z,11.10
2018-11-13T05:56:36.065Z,11.00
2018-11-13T05:59:05.355Z,11.00
2018-11-13T06:01:34.288Z,11.00
2018-11-13T06:04:03.234Z,11.00
2018-11-13T06:06:36.575Z,11.00
2018-11-13T06:09:07.070Z,11.00
2018-11-13T06:11:36.037Z,11.00
2018-11-13T06:14:05.336Z,11.00
2018-11-13T06:16:34.101Z,10.90
2018-11-13T06:19:02.923Z,10.90
2018-11-13T06:21:31.817Z,10.80
2018-11-13T06:24:01.899Z,10.70
2018-11-13T06:26:30.892Z,10.70
2018-11-13T06:28:59.728Z,10.60
2018-11-13T06:31:29.468Z,10.60
2018-11-13T06:33:58.564Z,10.50
2018-11-13T06:36:27.477Z,10.50
2018-11-13T06:38:56.386Z,10.50
2018-11-13T06:41:25.244Z,10.50
2018-11-13T06:43:57.792Z,10.50
2018-11-13T06:46:26.733Z,10.40
2018-11-13T06:48:55.747Z,10.40
2018-11-13T06:51:24.655Z,10.40
2018-11-13T06:54:04.661Z,10.40
2018-11-13T06:56:33.522Z,10.40
2018-11-13T06:59:02.361Z,10.50
2018-11-13T07:01:31.259Z,10.50
2018-11-13T07:04:00.207Z,10.50
2018-11-13T07:06:29.086Z,10.50
2018-11-13T07:08:57.853Z,10.50
2018-11-13T07:11:26.970Z,10.50
2018-11-13T07:13:55.801Z,10.50
2018-11-13T07:16:31.884Z,10.50
2018-11-13T07:19:00.812Z,10.50
2018-11-13T07:21:29.691Z,10.50
2018-11-13T07:23:58.633Z,10.50
2018-11-13T07:26:27.537Z,10.50
2018-11-13T07:28:56.423Z,10.50
2018-11-13T07:31:25.382Z,10.60
2018-11-13T07:33:54.177Z,10.50
2018-11-13T07:36:23.022Z,10.50
2018-11-13T07:38:51.884Z,10.50
2018-11-13T07:41:20.883Z,10.50
2018-11-13T07:43:49.823Z,10.50
2018-11-13T07:46:18.688Z,10.60
2018-11-13T07:48:47.670Z,10.70
2018-11-13T07:51:16.628Z,10.70
2018-11-13T07:53:45.442Z,10.70
2018-11-13T07:56:14.399Z,10.70
2018-11-13T08:01:36.498Z,10.90
2018-11-13T08:09:51.969Z,10.90
2018-11-13T08:12:20.755Z,10.90
2018-11-13T08:14:49.569Z,10.90
2018-11-13T08:17:18.447Z,10.90
2018-11-13T08:19:47.344Z,10.90
2018-11-13T08:22:16.256Z,10.90
2018-11-13T08:24:44.984Z,10.90
2018-11-13T08:27:13.899Z,10.90
2018-11-13T08:32:35.870Z,11.00
2018-11-13T08:35:05.012Z,11.00
2018-11-13T08:37:33.746Z,11.00
2018-11-13T08:40:02.575Z,11.10
2018-11-13T08:42:31.491Z,11.10
2018-11-13T08:45:00.453Z,11.10
2018-11-13T08:47:29.456Z,11.10
2018-11-13T08:52:51.576Z,11.10
2018-11-13T08:55:26.320Z,11.10
2018-11-13T08:58:07.206Z,11.10
2018-11-13T09:00:36.024Z,11.20
2018-11-13T09:03:04.902Z,11.10
2018-11-13T09:05:33.742Z,11.20
2018-11-13T09:08:02.546Z,11.20
2018-11-13T09:10:31.467Z,11.20
2018-11-13T09:13:00.272Z,11.20
2018-11-13T09:15:29.102Z,11.20
2018-11-13T09:17:57.969Z,11.30
2018-11-13T09:20:26.801Z,11.30
2018-11-13T09:22:55.590Z,11.30
2018-11-13T09:25:24.481Z,11.30
2018-11-13T09:27:53.293Z,11.30
2018-11-13T09:30:23.061Z,11.30
2018-11-13T09:32:51.723Z,11.10
2018-11-13T09:35:27.229Z,11.10
2018-11-13T09:37:56.101Z,11.00
2018-11-13T09:40:25.019Z,11.00
2018-11-13T09:42:53.849Z,11.00
2018-11-13T09:45:22.711Z,11.10
2018-11-13T09:47:51.629Z,11.10
2018-11-13T09:50:21.460Z,11.00
2018-11-13T09:52:51.631Z,11.00
2018-11-13T09:55:21.773Z,11.00
2018-11-13T10:00:43.902Z,11.00
2018-11-13T10:03:13.116Z,11.10
2018-11-13T10:05:41.701Z,11.10
2018-11-13T10:08:10.503Z,11.10
2018-11-13T10:10:39.374Z,11.20
2018-11-13T10:13:08.281Z,11.20
2018-11-13T10:15:37.156Z,11.20
2018-11-13T10:18:06.174Z,11.20
2018-11-13T10:20:35.030Z,11.20
2018-11-13T10:23:03.997Z,11.20
2018-11-13T10:25:32.817Z,11.20
2018-11-13T10:28:01.637Z,11.20
2018-11-13T10:30:30.519Z,11.10
2018-11-13T10:32:59.366Z,11.10
2018-11-13T10:35:28.223Z,11.10
2018-11-13T10:37:57.067Z,11.10
2018-11-13T10:40:25.971Z,11.10
2018-11-13T10:42:54.945Z,11.20
2018-11-13T10:45:25.935Z,11.20
2018-11-13T10:47:54.759Z,11.30
2018-11-13T10:50:24.782Z,11.40
2018-11-13T10:52:53.780Z,11.40
2018-11-13T10:55:22.686Z,11.40
2018-11-13T10:57:51.577Z,11.40
2018-11-13T11:00:25.652Z,11.40
2018-11-13T11:02:59.744Z,11.30
2018-11-13T11:05:28.972Z,11.30
2018-11-13T11:07:58.375Z,11.40
2018-11-13T11:10:27.472Z,11.40
2018-11-13T11:12:56.304Z,11.40
2018-11-13T11:15:25.213Z,11.40
2018-11-13T11:17:54.098Z,11.40
2018-11-13T11:20:23.011Z,11.40
2018-11-13T11:22:55.328Z,11.30
2018-11-13T11:25:24.287Z,11.30
2018-11-13T11:27:53.072Z,11.30
2018-11-13T11:30:21.938Z,11.30
2018-11-13T11:32:50.742Z,11.30
2018-11-13T11:35:19.719Z,11.40
2018-11-13T11:37:48.641Z,11.50
2018-11-13T11:40:17.432Z,11.60
2018-11-13T11:42:46.213Z,11.50
2018-11-13T11:45:15.417Z,11.50
2018-11-13T11:47:44.646Z,11.40
2018-11-13T11:50:14.305Z,11.40
2018-11-13T11:52:43.247Z,11.40
2018-11-13T11:55:12.762Z,11.40
2018-11-13T11:57:41.710Z,11.50
2018-11-13T12:00:16.485Z,11.40
2018-11-13T12:02:50.774Z,11.50
2018-11-13T12:05:19.628Z,11.50
2018-11-13T12:07:48.582Z,11.40
2018-11-13T12:10:17.554Z,11.40
2018-11-13T12:12:46.904Z,11.50
2018-11-13T12:15:15.721Z,11.50
2018-11-13T12:17:45.597Z,11.60
2018-11-13T12:20:15.377Z,11.60
2018-11-13T12:22:44.527Z,11.60
2018-11-13T12:25:17.591Z,11.60
2018-11-13T12:27:56.226Z,11.70
2018-11-13T12:30:28.498Z,11.60
2018-11-13T12:32:57.493Z,11.60
2018-11-13T12:35:26.584Z,11.60
2018-11-13T12:37:55.685Z,11.60
2018-11-13T12:40:25.466Z,11.80
2018-11-13T12:42:54.516Z,11.90
2018-11-13T12:45:23.457Z,12.00
2018-11-13T12:47:52.268Z,12.20
2018-11-13T12:50:21.525Z,12.10
2018-11-13T12:52:50.578Z,12.20
2018-11-13T12:55:21.755Z,12.20
2018-11-13T12:57:50.795Z,12.20
2018-11-13T13:00:23.099Z,12.10
2018-11-13T13:02:51.991Z,12.00
2018-11-13T13:05:20.878Z,12.00
2018-11-13T13:07:49.753Z,11.90
2018-11-13T13:10:19.661Z,12.00
2018-11-13T13:12:48.580Z,12.00
2018-11-13T13:15:17.988Z,12.00
2018-11-13T13:17:47.066Z,12.00
2018-11-13T13:20:18.632Z,11.90
2018-11-13T13:22:48.663Z,11.80
2018-11-13T13:25:18.622Z,11.80
2018-11-13T13:27:47.732Z,11.80
2018-11-13T13:30:18.435Z,11.90
2018-11-13T13:32:53.406Z,11.90
2018-11-13T13:36:01.147Z,11.90
2018-11-13T13:38:30.990Z,11.90
2018-11-13T13:41:00.956Z,11.90
2018-11-13T13:43:30.775Z,11.90
2018-11-13T13:45:59.887Z,11.80
2018-11-13T13:48:28.995Z,11.80
2018-11-13T13:53:51.190Z,11.90
2018-11-13T13:56:20.112Z,12.00
2018-11-13T13:58:49.069Z,12.00
2018-11-13T14:01:18.069Z,12.00
2018-11-13T14:03:47.971Z,12.10
2018-11-13T14:06:15.914Z,12.10
2018-11-13T14:08:44.831Z,12.10
2018-11-13T14:11:13.689Z,12.00
2018-11-13T14:13:42.523Z,12.00
2018-11-13T14:16:11.499Z,12.00
2018-11-13T14:18:40.361Z,11.90
2018-11-13T14:21:12.093Z,11.90
2018-11-13T14:23:50.485Z,11.80
2018-11-13T14:26:26.051Z,11.90
2018-11-13T14:28:59.599Z,12.00
2018-11-13T14:31:36.857Z,12.00
2018-11-13T14:34:25.571Z,12.20
2018-11-13T14:37:47.278Z,12.20
2018-11-13T14:40:19.089Z,12.30
2018-11-13T14:42:48.411Z,12.40
2018-11-13T14:45:17.997Z,12.40
2018-11-13T14:47:47.668Z,12.40
2018-11-13T14:50:18.284Z,12.40
2018-11-13T14:52:47.744Z,12.50
2018-11-13T14:55:19.047Z,12.40
2018-11-13T14:57:48.336Z,12.30
2018-11-13T15:00:29.409Z,12.20
2018-11-13T15:02:59.073Z,12.10
2018-11-13T15:05:28.694Z,12.00
2018-11-13T15:07:59.040Z,11.90
2018-11-13T15:10:33.067Z,11.80
2018-11-13T15:13:02.166Z,11.60
2018-11-13T15:15:31.154Z,11.50
2018-11-13T15:18:06.578Z,11.40
2018-11-13T15:20:35.548Z,11.40
2018-11-13T15:23:04.858Z,11.20
2018-11-13T15:25:34.119Z,11.20
2018-11-13T15:28:03.099Z,11.10
2018-11-13T15:30:37.410Z,11.10
2018-11-13T15:33:08.381Z,11.00
2018-11-13T15:35:37.209Z,10.90
2018-11-13T15:38:07.088Z,10.90
2018-11-13T15:40:36.121Z,10.90
2018-11-13T15:43:05.395Z,10.90
2018-11-13T15:45:34.464Z,10.80
2018-11-13T15:48:04.576Z,10.70
2018-11-13T15:50:34.575Z,10.50
2018-11-13T15:53:03.384Z,10.30
2018-11-13T15:55:32.215Z,10.10
2018-11-13T16:00:54.449Z,9.80
2018-11-13T16:03:25.025Z,9.70
2018-11-13T16:05:55.132Z,9.50
2018-11-13T16:08:24.122Z,9.40
2018-11-13T16:10:52.903Z,9.30
2018-11-13T16:13:21.889Z,9.20
2018-11-13T16:16:02.832Z,9.10
2018-11-13T16:18:31.983Z,9.10
2018-11-13T16:21:01.017Z,9.00
2018-11-13T16:23:31.349Z,8.90
2018-11-13T16:26:03.007Z,8.80
2018-11-13T16:28:31.970Z,8.70
2018-11-13T16:31:01.740Z,8.70
2018-11-13T16:33:31.148Z,8.70
2018-11-13T16:35:59.995Z,8.70
2018-11-13T16:38:29.039Z,8.70
2018-11-13T16:41:00.023Z,8.60
2018-11-13T16:43:28.917Z,8.50
2018-11-13T16:45:57.908Z,8.50
2018-11-13T16:48:26.944Z,8.50
2018-11-13T16:50:55.958Z,8.40
2018-11-13T16:53:24.863Z,8.40
2018-11-13T16:56:01.703Z,8.40
2018-11-13T16:58:31.116Z,8.40
2018-11-13T17:01:00.018Z,8.40
2018-11-13T17:03:29.127Z,8.40
2018-11-13T17:06:07.286Z,8.40
2018-11-13T17:08:36.707Z,8.50
2018-11-13T17:11:06.044Z,8.50
2018-11-13T17:13:34.873Z,8.60
2018-11-13T17:16:04.306Z,8.50
2018-11-13T17:18:37.221Z,8.60
2018-11-13T17:21:06.133Z,8.60
2018-11-13T17:23:35.003Z,8.50
2018-11-13T17:26:03.920Z,8.50
2018-11-13T17:28:33.564Z,8.50
2018-11-13T17:31:02.757Z,8.40
2018-11-13T17:33:31.788Z,8.40
2018-11-13T17:36:01.277Z,8.30
2018-11-13T17:38:30.153Z,8.30
2018-11-13T17:41:02.716Z,8.20
2018-11-13T17:43:31.583Z,8.20
2018-11-13T17:46:00.509Z,8.10
2018-11-13T17:48:29.380Z,8.10
2018-11-13T17:50:58.316Z,8.10
2018-11-13T17:53:27.207Z,8.00
2018-11-13T17:55:56.119Z,8.00
2018-11-13T17:58:24.944Z,8.00
2018-11-13T18:00:53.861Z,8.00
2018-11-13T18:03:22.800Z,8.00
2018-11-13T18:06:01.348Z,8.00
2018-11-13T18:08:30.301Z,8.00
2018-11-13T18:10:59.671Z,8.00
2018-11-13T18:13:28.542Z,8.00
2018-11-13T18:16:01.055Z,8.00
2018-11-13T18:18:30.048Z,8.00
2018-11-13T18:20:59.610Z,7.90
2018-11-13T18:23:35.524Z,7.90
2018-11-13T18:26:04.426Z,7.90
2018-11-13T18:28:33.479Z,7.90
2018-11-13T18:31:02.265Z,7.80
2018-11-13T18:33:31.116Z,7.80
2018-11-13T18:36:00.260Z,7.70
2018-11-13T18:38:29.035Z,7.60
2018-11-13T18:40:57.982Z,7.70
2018-11-13T18:43:27.080Z,7.60
2018-11-13T18:45:56.192Z,7.60
2018-11-13T18:48:26.040Z,7.50
2018-11-13T18:50:54.993Z,7.40
2018-11-13T18:53:24.023Z,7.40
2018-11-13T18:55:52.954Z,7.30
2018-11-13T18:58:21.798Z,7.30
2018-11-13T19:00:50.749Z,7.20
2018-11-13T19:03:19.661Z,7.20
2018-11-13T19:05:48.587Z,7.10
2018-11-13T19:08:17.482Z,7.10
2018-11-13T19:10:47.623Z,7.10
2018-11-13T19:13:18.045Z,7.10
2018-11-13T19:15:49.849Z,7.00
2018-11-13T19:18:19.770Z,6.90
2018-11-13T19:20:48.773Z,6.90
2018-11-13T19:23:18.149Z,6.90
2018-11-13T19:25:47.014Z,6.90
2018-11-13T19:28:15.795Z,6.90
2018-11-13T19:30:44.765Z,6.80
2018-11-13T19:33:13.611Z,6.80
2018-11-13T19:35:42.713Z,6.80
2018-11-13T19:38:18.516Z,6.70
2018-11-13T19:40:47.400Z,6.60
2018-11-13T19:43:16.591Z,6.60
2018-11-13T19:54:25.004Z,6.60
2018-11-13T19:56:53.923Z,6.60
2018-11-13T19:59:26.323Z,6.60
2018-11-13T20:01:55.179Z,6.60
2018-11-13T20:04:24.185Z,6.60
2018-11-13T20:06:53.124Z,6.60
2018-11-13T20:09:22.031Z,6.50
2018-11-13T20:11:50.962Z,6.60
2018-11-13T20:14:19.941Z,6.50
2018-11-13T20:16:48.834Z,6.60
2018-11-13T20:19:17.748Z,6.60
2018-11-13T20:21:46.743Z,6.60
2018-11-13T20:24:15.683Z,6.60
2018-11-13T20:27:03.656Z,6.50
2018-11-13T20:29:32.667Z,6.50
2018-11-13T20:32:01.583Z,6.50
2018-11-13T20:34:30.721Z,6.60
2018-11-13T20:36:59.613Z,6.50
2018-11-13T20:39:28.907Z,6.50
2018-11-13T20:41:57.920Z,6.50
2018-11-13T20:44:26.885Z,6.50
2018-11-13T20:46:55.900Z,6.40
2018-11-13T20:49:24.883Z,6.40
2018-11-13T20:51:53.791Z,6.40
2018-11-13T20:54:22.722Z,6.40
2018-11-13T20:56:51.672Z,6.30
2018-11-13T20:59:20.659Z,6.30
2018-11-13T21:01:49.595Z,6.30
2018-11-13T21:04:18.516Z,6.20
2018-11-13T21:06:47.493Z,6.20
2018-11-13T21:09:16.447Z,6.20
2018-11-13T21:11:57.839Z,6.20
2018-11-13T21:14:39.729Z,6.10
2018-11-13T21:17:10.371Z,6.10
2018-11-13T21:19:39.233Z,6.10
2018-11-13T21:22:08.253Z,6.10
2018-11-13T21:24:37.443Z,6.10
2018-11-13T21:27:06.449Z,6.00
2018-11-13T21:29:38.809Z,6.00
2018-11-13T21:32:07.743Z,6.00
2018-11-13T21:34:36.908Z,5.90
2018-11-13T21:37:07.148Z,5.90
2018-11-13T21:39:36.218Z,5.80
2018-11-13T21:42:05.466Z,5.70
2018-11-13T21:44:36.600Z,5.70
2018-11-13T21:47:06.093Z,5.60
2018-11-13T21:49:35.167Z,5.50
2018-11-13T21:52:15.161Z,5.50
2018-11-13T21:54:44.209Z,5.50
2018-11-13T21:57:13.236Z,5.40
2018-11-13T21:59:46.682Z,5.40
2018-11-13T22:02:22.889Z,5.40
2018-11-13T22:04:51.945Z,5.40
2018-11-13T22:07:20.871Z,5.40
2018-11-13T22:09:49.928Z,5.40
2018-11-13T22:12:18.972Z,5.40
2018-11-13T22:14:48.016Z,5.40
2018-11-13T22:17:17.009Z,5.40
2018-11-13T22:19:45.950Z,5.40
2018-11-13T22:22:15.025Z,5.40
2018-11-13T22:24:44.071Z,5.40
2018-11-13T22:27:13.132Z,5.40
2018-11-13T22:29:59.187Z,5.40
2018-11-13T22:32:28.171Z,5.40
2018-11-13T22:34:57.148Z,5.50
2018-11-13T22:37:26.114Z,5.50
2018-11-13T22:39:55.664Z,5.40
2018-11-13T22:42:24.227Z,5.40
2018-11-13T22:44:53.211Z,5.30
2018-11-13T22:47:22.138Z,5.20
2018-11-13T22:49:51.165Z,5.20
2018-11-13T22:52:20.195Z,5.30
2018-11-13T22:54:49.145Z,5.20
2018-11-13T22:57:18.128Z,5.20
2018-11-13T22:59:47.119Z,5.20
2018-11-13T23:02:17.684Z,5.10
2018-11-13T23:04:47.043Z,5.10
2018-11-13T23:07:16.001Z,5.00
2018-11-13T23:12:57.269Z,5.00
2018-11-13T23:15:26.323Z,4.90
2018-11-13T23:17:55.311Z,4.90
2018-11-13T23:20:24.307Z,4.80
2018-11-13T23:22:53.306Z,4.80
2018-11-13T23:25:22.345Z,4.80
2018-11-13T23:27:51.886Z,4.70
2018-11-13T23:30:23.087Z,4.70
2018-11-13T23:32:52.441Z,4.60
2018-11-13T23:35:21.454Z,4.60
2018-11-13T23:37:51.855Z,4.60
2018-11-13T23:40:22.968Z,4.60
2018-11-13T23:42:52.374Z,4.60
2018-11-13T23:45:22.504Z,4.60
2018-11-13T23:47:51.797Z,4.70
2018-11-13T23:50:20.837Z,4.70
2018-11-13T23:52:50.800Z,4.70
